sensor_id;sensor_type;location;lat;lon;timestamp;P1;durP1;ratioP1;P2;durP2;ratioP2
70045;SDS011;57385;41.832;23.494;2022-10-17T00:00:06;9.70;;;4.77;;
70045;SDS011;57385;41.832;23.494;2022-10-17T00:00:26;11.07;;;4.88;;
70045;SDS011;57385;41.832;23.494;2022-10-17T00:00:45;13.37;;;4.63;;
70045;SDS011;57385;41.832;23.494;2022-10-17T00:01:08;13.45;;;4.30;;
70045;SDS011;57385;41.832;23.494;2022-10-17T00:01:27;12.93;;;4.80;;
70045;SDS011;57385;41.832;23.494;2022-10-17T00:01:49;13.80;;;4.43;;
70045;SDS011;57385;41.832;23.494;2022-10-17T00:02:08;10.68;;;4.57;;
70045;SDS011;57385;41.832;23.494;2022-10-17T00:02:28;9.53;;;4.07;;
70045;SDS011;57385;41.832;23.494;2022-10-17T00:02:47;8.43;;;4.10;;
70045;SDS011;57385;41.832;23.494;2022-10-17T00:03:07;8.77;;;4.07;;
70045;SDS011;57385;41.832;23.494;2022-10-17T00:03:27;7.55;;;3.35;;
70045;SDS011;57385;41.832;23.494;2022-10-17T00:03:46;10.23;;;3.88;;
70045;SDS011;57385;41.832;23.494;2022-10-17T00:04:06;8.93;;;4.03;;
70045;SDS011;57385;41.832;23.494;2022-10-17T00:04:25;8.13;;;3.45;;
70045;SDS011;57385;41.832;23.494;2022-10-17T00:04:44;6.37;;;3.13;;
70045;SDS011;57385;41.832;23.494;2022-10-17T00:05:04;7.85;;;3.15;;
70045;SDS011;57385;41.832;23.494;2022-10-17T00:05:23;8.53;;;3.33;;
70045;SDS011;57385;41.832;23.494;2022-10-17T00:05:44;10.73;;;3.53;;
70045;SDS011;57385;41.832;23.494;2022-10-17T00:06:05;7.32;;;3.47;;
70045;SDS011;57385;41.832;23.494;2022-10-17T00:06:26;9.25;;;3.63;;
70045;SDS011;57385;41.832;23.494;2022-10-17T00:06:45;9.75;;;3.95;;
70045;SDS011;57385;41.832;23.494;2022-10-17T00:07:05;7.27;;;3.57;;
70045;SDS011;57385;41.832;23.494;2022-10-17T00:07:24;6.28;;;3.17;;
70045;SDS011;57385;41.832;23.494;2022-10-17T00:07:44;7.03;;;3.47;;
70045;SDS011;57385;41.832;23.494;2022-10-17T00:08:03;8.68;;;3.33;;
70045;SDS011;57385;41.832;23.494;2022-10-17T00:08:23;6.47;;;3.33;;
70045;SDS011;57385;41.832;23.494;2022-10-17T00:08:42;6.70;;;3.20;;
70045;SDS011;57385;41.832;23.494;2022-10-17T00:09:02;7.43;;;3.58;;
70045;SDS011;57385;41.832;23.494;2022-10-17T00:09:22;9.52;;;3.70;;
70045;SDS011;57385;41.832;23.494;2022-10-17T00:09:42;8.50;;;3.70;;
70045;SDS011;57385;41.832;23.494;2022-10-17T00:10:03;7.55;;;3.40;;
70045;SDS011;57385;41.832;23.494;2022-10-17T00:10:23;7.50;;;3.50;;
70045;SDS011;57385;41.832;23.494;2022-10-17T00:10:43;9.18;;;3.50;;
70045;SDS011;57385;41.832;23.494;2022-10-17T00:11:04;7.70;;;3.65;;
70045;SDS011;57385;41.832;23.494;2022-10-17T00:11:25;11.77;;;4.10;;
70045;SDS011;57385;41.832;23.494;2022-10-17T00:11:44;10.57;;;3.97;;
70045;SDS011;57385;41.832;23.494;2022-10-17T00:12:04;10.90;;;4.20;;
70045;SDS011;57385;41.832;23.494;2022-10-17T00:12:23;10.60;;;3.97;;
70045;SDS011;57385;41.832;23.494;2022-10-17T00:12:43;11.23;;;4.47;;
70045;SDS011;57385;41.832;23.494;2022-10-17T00:13:02;12.63;;;4.33;;
70045;SDS011;57385;41.832;23.494;2022-10-17T00:13:22;9.82;;;4.35;;
70045;SDS011;57385;41.832;23.494;2022-10-17T00:13:42;7.53;;;4.73;;
70045;SDS011;57385;41.832;23.494;2022-10-17T00:14:01;8.90;;;4.77;;
70045;SDS011;57385;41.832;23.494;2022-10-17T00:14:21;11.43;;;4.90;;
70045;SDS011;57385;41.832;23.494;2022-10-17T00:14:40;13.07;;;5.73;;
70045;SDS011;57385;41.832;23.494;2022-10-17T00:15:04;15.70;;;6.72;;
70045;SDS011;57385;41.832;23.494;2022-10-17T00:15:24;12.82;;;6.47;;
70045;SDS011;57385;41.832;23.494;2022-10-17T00:15:44;12.80;;;6.37;;
70045;SDS011;57385;41.832;23.494;2022-10-17T00:16:03;14.27;;;6.13;;
70045;SDS011;57385;41.832;23.494;2022-10-17T00:16:25;17.42;;;7.45;;
70045;SDS011;57385;41.832;23.494;2022-10-17T00:16:48;22.75;;;9.15;;
70045;SDS011;57385;41.832;23.494;2022-10-17T00:17:08;21.03;;;9.30;;
70045;SDS011;57385;41.832;23.494;2022-10-17T00:17:27;19.27;;;9.30;;
70045;SDS011;57385;41.832;23.494;2022-10-17T00:17:50;25.40;;;10.18;;
70045;SDS011;57385;41.832;23.494;2022-10-17T00:18:09;22.38;;;10.27;;
70045;SDS011;57385;41.832;23.494;2022-10-17T00:18:29;20.43;;;9.53;;
70045;SDS011;57385;41.832;23.494;2022-10-17T00:18:48;22.27;;;10.53;;
70045;SDS011;57385;41.832;23.494;2022-10-17T00:19:07;22.98;;;10.48;;
70045;SDS011;57385;41.832;23.494;2022-10-17T00:19:27;22.70;;;11.43;;
70045;SDS011;57385;41.832;23.494;2022-10-17T00:19:46;23.80;;;11.27;;
70045;SDS011;57385;41.832;23.494;2022-10-17T00:20:06;21.02;;;10.27;;
70045;SDS011;57385;41.832;23.494;2022-10-17T00:20:26;22.77;;;10.48;;
70045;SDS011;57385;41.832;23.494;2022-10-17T00:20:45;22.80;;;10.60;;
70045;SDS011;57385;41.832;23.494;2022-10-17T00:21:05;21.20;;;10.43;;
70045;SDS011;57385;41.832;23.494;2022-10-17T00:21:24;22.33;;;9.82;;
70045;SDS011;57385;41.832;23.494;2022-10-17T00:21:45;21.75;;;9.77;;
70045;SDS011;57385;41.832;23.494;2022-10-17T00:22:07;20.27;;;9.80;;
70045;SDS011;57385;41.832;23.494;2022-10-17T00:22:26;23.05;;;10.02;;
70045;SDS011;57385;41.832;23.494;2022-10-17T00:22:46;26.73;;;10.15;;
70045;SDS011;57385;41.832;23.494;2022-10-17T00:23:05;26.53;;;10.43;;
70045;SDS011;57385;41.832;23.494;2022-10-17T00:23:25;24.80;;;10.68;;
70045;SDS011;57385;41.832;23.494;2022-10-17T00:23:45;21.23;;;10.57;;
70045;SDS011;57385;41.832;23.494;2022-10-17T00:24:04;19.98;;;10.70;;
70045;SDS011;57385;41.832;23.494;2022-10-17T00:24:24;22.23;;;10.63;;
70045;SDS011;57385;41.832;23.494;2022-10-17T00:24:43;23.65;;;10.80;;
70045;SDS011;57385;41.832;23.494;2022-10-17T00:25:03;20.70;;;10.17;;
70045;SDS011;57385;41.832;23.494;2022-10-17T00:25:23;22.05;;;9.38;;
70045;SDS011;57385;41.832;23.494;2022-10-17T00:25:42;20.80;;;8.35;;
70045;SDS011;57385;41.832;23.494;2022-10-17T00:26:03;21.87;;;7.57;;
70045;SDS011;57385;41.832;23.494;2022-10-17T00:26:23;19.63;;;7.78;;
70045;SDS011;57385;41.832;23.494;2022-10-17T00:26:43;14.20;;;7.22;;
70045;SDS011;57385;41.832;23.494;2022-10-17T00:27:02;14.90;;;7.13;;
70045;SDS011;57385;41.832;23.494;2022-10-17T00:27:22;14.82;;;6.97;;
70045;SDS011;57385;41.832;23.494;2022-10-17T00:27:42;13.77;;;6.87;;
70045;SDS011;57385;41.832;23.494;2022-10-17T00:28:01;15.65;;;6.45;;
70045;SDS011;57385;41.832;23.494;2022-10-17T00:28:21;13.30;;;6.18;;
70045;SDS011;57385;41.832;23.494;2022-10-17T00:28:47;9.27;;;5.93;;
70045;SDS011;57385;41.832;23.494;2022-10-17T00:29:07;14.23;;;6.00;;
70045;SDS011;57385;41.832;23.494;2022-10-17T00:29:27;13.50;;;6.00;;
70045;SDS011;57385;41.832;23.494;2022-10-17T00:29:47;12.33;;;6.07;;
70045;SDS011;57385;41.832;23.494;2022-10-17T00:30:11;12.52;;;6.03;;
70045;SDS011;57385;41.832;23.494;2022-10-17T00:30:31;10.40;;;5.60;;
70045;SDS011;57385;41.832;23.494;2022-10-17T00:30:55;12.20;;;6.30;;
70045;SDS011;57385;41.832;23.494;2022-10-17T00:31:16;13.07;;;5.80;;
70045;SDS011;57385;41.832;23.494;2022-10-17T00:31:37;12.93;;;5.80;;
70045;SDS011;57385;41.832;23.494;2022-10-17T00:31:57;13.90;;;6.05;;
70045;SDS011;57385;41.832;23.494;2022-10-17T00:32:17;12.97;;;6.27;;
70045;SDS011;57385;41.832;23.494;2022-10-17T00:32:38;14.90;;;6.72;;
70045;SDS011;57385;41.832;23.494;2022-10-17T00:32:57;11.33;;;5.87;;
70045;SDS011;57385;41.832;23.494;2022-10-17T00:33:20;11.55;;;5.80;;
70045;SDS011;57385;41.832;23.494;2022-10-17T00:33:39;15.02;;;6.35;;
70045;SDS011;57385;41.832;23.494;2022-10-17T00:33:58;16.20;;;6.43;;
70045;SDS011;57385;41.832;23.494;2022-10-17T00:34:20;10.55;;;5.80;;
70045;SDS011;57385;41.832;23.494;2022-10-17T00:34:40;11.50;;;5.85;;
70045;SDS011;57385;41.832;23.494;2022-10-17T00:34:59;14.80;;;6.78;;
70045;SDS011;57385;41.832;23.494;2022-10-17T00:35:19;15.33;;;6.33;;
70045;SDS011;57385;41.832;23.494;2022-10-17T00:35:38;14.15;;;6.65;;
70045;SDS011;57385;41.832;23.494;2022-10-17T00:36:01;12.63;;;6.90;;
70045;SDS011;57385;41.832;23.494;2022-10-17T00:36:27;15.43;;;6.82;;
70045;SDS011;57385;41.832;23.494;2022-10-17T00:36:47;14.48;;;6.57;;
70045;SDS011;57385;41.832;23.494;2022-10-17T00:37:06;15.77;;;6.90;;
70045;SDS011;57385;41.832;23.494;2022-10-17T00:37:26;13.80;;;6.57;;
70045;SDS011;57385;41.832;23.494;2022-10-17T00:37:45;14.35;;;6.72;;
70045;SDS011;57385;41.832;23.494;2022-10-17T00:38:05;14.97;;;7.07;;
70045;SDS011;57385;41.832;23.494;2022-10-17T00:38:24;17.30;;;7.50;;
70045;SDS011;57385;41.832;23.494;2022-10-17T00:38:44;17.00;;;7.30;;
70045;SDS011;57385;41.832;23.494;2022-10-17T00:39:05;17.95;;;7.18;;
70045;SDS011;57385;41.832;23.494;2022-10-17T00:39:25;16.57;;;7.30;;
70045;SDS011;57385;41.832;23.494;2022-10-17T00:39:44;15.48;;;7.15;;
70045;SDS011;57385;41.832;23.494;2022-10-17T00:40:04;13.83;;;6.80;;
70045;SDS011;57385;41.832;23.494;2022-10-17T00:40:25;13.65;;;6.40;;
70045;SDS011;57385;41.832;23.494;2022-10-17T00:40:44;15.53;;;6.80;;
70045;SDS011;57385;41.832;23.494;2022-10-17T00:41:05;16.35;;;7.63;;
70045;SDS011;57385;41.832;23.494;2022-10-17T00:41:26;14.02;;;7.22;;
70045;SDS011;57385;41.832;23.494;2022-10-17T00:41:50;18.15;;;7.75;;
70045;SDS011;57385;41.832;23.494;2022-10-17T00:42:11;19.52;;;6.95;;
70045;SDS011;57385;41.832;23.494;2022-10-17T00:42:34;16.92;;;7.05;;
70045;SDS011;57385;41.832;23.494;2022-10-17T00:42:54;14.30;;;6.80;;
70045;SDS011;57385;41.832;23.494;2022-10-17T00:43:14;15.10;;;7.45;;
70045;SDS011;57385;41.832;23.494;2022-10-17T00:43:51;13.80;;;6.35;;
70045;SDS011;57385;41.832;23.494;2022-10-17T00:45:14;14.10;;;5.85;;
70045;SDS011;57385;41.832;23.494;2022-10-17T00:45:52;13.95;;;5.43;;
70045;SDS011;57385;41.832;23.494;2022-10-17T00:46:11;10.47;;;4.53;;
70045;SDS011;57385;41.832;23.494;2022-10-17T00:46:34;9.75;;;4.60;;
70045;SDS011;57385;41.832;23.494;2022-10-17T00:47:01;11.25;;;4.70;;
70045;SDS011;57385;41.832;23.494;2022-10-17T00:47:24;8.95;;;4.10;;
70045;SDS011;57385;41.832;23.494;2022-10-17T00:47:44;6.85;;;3.70;;
70045;SDS011;57385;41.832;23.494;2022-10-17T00:48:09;8.23;;;4.03;;
70045;SDS011;57385;41.832;23.494;2022-10-17T00:48:30;4.40;;;3.20;;
70045;SDS011;57385;41.832;23.494;2022-10-17T00:48:49;5.18;;;3.28;;
70045;SDS011;57385;41.832;23.494;2022-10-17T00:49:11;4.90;;;3.55;;
70045;SDS011;57385;41.832;23.494;2022-10-17T00:49:32;5.13;;;3.60;;
70045;SDS011;57385;41.832;23.494;2022-10-17T00:49:53;5.63;;;3.03;;
70045;SDS011;57385;41.832;23.494;2022-10-17T00:50:13;5.50;;;3.22;;
70045;SDS011;57385;41.832;23.494;2022-10-17T00:50:33;6.20;;;3.33;;
70045;SDS011;57385;41.832;23.494;2022-10-17T00:50:56;7.30;;;4.05;;
70045;SDS011;57385;41.832;23.494;2022-10-17T00:51:15;8.47;;;4.27;;
70045;SDS011;57385;41.832;23.494;2022-10-17T00:51:40;9.32;;;4.22;;
70045;SDS011;57385;41.832;23.494;2022-10-17T00:52:10;8.68;;;4.60;;
70045;SDS011;57385;41.832;23.494;2022-10-17T00:52:39;8.02;;;4.25;;
70045;SDS011;57385;41.832;23.494;2022-10-17T00:53:03;7.25;;;4.00;;
70045;SDS011;57385;41.832;23.494;2022-10-17T00:53:24;7.80;;;4.07;;
70045;SDS011;57385;41.832;23.494;2022-10-17T00:53:46;7.05;;;4.13;;
70045;SDS011;57385;41.832;23.494;2022-10-17T00:54:06;6.50;;;4.13;;
70045;SDS011;57385;41.832;23.494;2022-10-17T00:54:30;6.45;;;4.00;;
70045;SDS011;57385;41.832;23.494;2022-10-17T00:55:19;6.63;;;3.42;;
70045;SDS011;57385;41.832;23.494;2022-10-17T00:55:56;5.07;;;2.90;;
70045;SDS011;57385;41.832;23.494;2022-10-17T00:56:15;5.77;;;2.93;;
70045;SDS011;57385;41.832;23.494;2022-10-17T00:56:36;5.45;;;3.03;;
70045;SDS011;57385;41.832;23.494;2022-10-17T00:56:57;4.50;;;2.83;;
70045;SDS011;57385;41.832;23.494;2022-10-17T00:57:19;6.57;;;2.97;;
70045;SDS011;57385;41.832;23.494;2022-10-17T00:57:38;7.97;;;4.37;;
70045;SDS011;57385;41.832;23.494;2022-10-17T00:58:00;8.30;;;4.72;;
70045;SDS011;57385;41.832;23.494;2022-10-17T00:58:21;9.07;;;5.05;;
70045;SDS011;57385;41.832;23.494;2022-10-17T00:58:40;12.83;;;5.37;;
70045;SDS011;57385;41.832;23.494;2022-10-17T00:59:00;12.98;;;5.95;;
70045;SDS011;57385;41.832;23.494;2022-10-17T00:59:23;13.95;;;7.10;;
70045;SDS011;57385;41.832;23.494;2022-10-17T00:59:44;14.38;;;7.13;;
70045;SDS011;57385;41.832;23.494;2022-10-17T01:00:07;14.93;;;7.07;;
70045;SDS011;57385;41.832;23.494;2022-10-17T01:00:29;20.05;;;7.60;;
70045;SDS011;57385;41.832;23.494;2022-10-17T01:00:50;18.08;;;7.05;;
70045;SDS011;57385;41.832;23.494;2022-10-17T01:01:09;13.52;;;6.50;;
70045;SDS011;57385;41.832;23.494;2022-10-17T01:01:29;14.10;;;6.50;;
70045;SDS011;57385;41.832;23.494;2022-10-17T01:01:53;12.15;;;6.13;;
70045;SDS011;57385;41.832;23.494;2022-10-17T01:02:19;10.68;;;5.97;;
70045;SDS011;57385;41.832;23.494;2022-10-17T01:02:40;10.95;;;5.85;;
70045;SDS011;57385;41.832;23.494;2022-10-17T01:02:59;10.73;;;5.63;;
70045;SDS011;57385;41.832;23.494;2022-10-17T01:03:18;10.90;;;6.23;;
70045;SDS011;57385;41.832;23.494;2022-10-17T01:03:38;11.48;;;5.68;;
70045;SDS011;57385;41.832;23.494;2022-10-17T01:03:57;9.67;;;5.10;;
70045;SDS011;57385;41.832;23.494;2022-10-17T01:04:17;9.40;;;5.30;;
70045;SDS011;57385;41.832;23.494;2022-10-17T01:04:37;10.55;;;5.78;;
70045;SDS011;57385;41.832;23.494;2022-10-17T01:04:59;11.63;;;5.57;;
70045;SDS011;57385;41.832;23.494;2022-10-17T01:05:19;12.43;;;5.55;;
70045;SDS011;57385;41.832;23.494;2022-10-17T01:05:39;11.47;;;5.57;;
70045;SDS011;57385;41.832;23.494;2022-10-17T01:06:00;11.95;;;5.65;;
70045;SDS011;57385;41.832;23.494;2022-10-17T01:06:19;9.00;;;4.72;;
70045;SDS011;57385;41.832;23.494;2022-10-17T01:06:39;8.40;;;4.40;;
70045;SDS011;57385;41.832;23.494;2022-10-17T01:06:58;7.55;;;3.83;;
70045;SDS011;57385;41.832;23.494;2022-10-17T01:07:17;7.03;;;3.60;;
70045;SDS011;57385;41.832;23.494;2022-10-17T01:07:37;6.45;;;3.72;;
70045;SDS011;57385;41.832;23.494;2022-10-17T01:07:59;6.47;;;3.88;;
70045;SDS011;57385;41.832;23.494;2022-10-17T01:08:19;6.47;;;3.80;;
70045;SDS011;57385;41.832;23.494;2022-10-17T01:08:38;6.72;;;3.65;;
70045;SDS011;57385;41.832;23.494;2022-10-17T01:08:58;6.70;;;3.53;;
70045;SDS011;57385;41.832;23.494;2022-10-17T01:09:18;6.70;;;3.38;;
70045;SDS011;57385;41.832;23.494;2022-10-17T01:09:38;6.10;;;3.55;;
70045;SDS011;57385;41.832;23.494;2022-10-17T01:09:58;4.88;;;2.88;;
70045;SDS011;57385;41.832;23.494;2022-10-17T01:10:19;3.72;;;2.78;;
70045;SDS011;57385;41.832;23.494;2022-10-17T01:11:55;7.00;;;3.38;;
70045;SDS011;57385;41.832;23.494;2022-10-17T01:12:40;4.75;;;2.95;;
70045;SDS011;57385;41.832;23.494;2022-10-17T01:13:12;3.90;;;2.97;;
70045;SDS011;57385;41.832;23.494;2022-10-17T01:13:54;6.57;;;3.40;;
70045;SDS011;57385;41.832;23.494;2022-10-17T01:14:31;5.82;;;3.42;;
70045;SDS011;57385;41.832;23.494;2022-10-17T01:15:51;6.03;;;3.42;;
70045;SDS011;57385;41.832;23.494;2022-10-17T01:16:17;4.70;;;3.42;;
70045;SDS011;57385;41.832;23.494;2022-10-17T01:17:26;8.25;;;3.35;;
70045;SDS011;57385;41.832;23.494;2022-10-17T01:19:02;9.93;;;3.60;;
70045;SDS011;57385;41.832;23.494;2022-10-17T01:21:54;8.35;;;3.92;;
70045;SDS011;57385;41.832;23.494;2022-10-17T01:22:30;6.07;;;3.72;;
70045;SDS011;57385;41.832;23.494;2022-10-17T01:23:26;7.63;;;3.90;;
70045;SDS011;57385;41.832;23.494;2022-10-17T01:24:24;6.43;;;3.78;;
70045;SDS011;57385;41.832;23.494;2022-10-17T01:24:49;7.38;;;4.45;;
70045;SDS011;57385;41.832;23.494;2022-10-17T01:26:16;8.75;;;4.10;;
70045;SDS011;57385;41.832;23.494;2022-10-17T01:31:39;6.65;;;3.53;;
70045;SDS011;57385;41.832;23.494;2022-10-17T01:33:07;5.03;;;3.03;;
70045;SDS011;57385;41.832;23.494;2022-10-17T01:33:30;6.03;;;2.90;;
70045;SDS011;57385;41.832;23.494;2022-10-17T01:34:01;5.40;;;3.13;;
70045;SDS011;57385;41.832;23.494;2022-10-17T01:34:47;6.47;;;3.33;;
70045;SDS011;57385;41.832;23.494;2022-10-17T01:35:19;6.22;;;3.22;;
70045;SDS011;57385;41.832;23.494;2022-10-17T01:36:48;6.50;;;2.95;;
70045;SDS011;57385;41.832;23.494;2022-10-17T01:38:47;7.13;;;3.72;;
70045;SDS011;57385;41.832;23.494;2022-10-17T01:39:45;5.78;;;3.80;;
70045;SDS011;57385;41.832;23.494;2022-10-17T01:40:13;7.53;;;3.75;;
70045;SDS011;57385;41.832;23.494;2022-10-17T01:40:44;10.50;;;3.45;;
70045;SDS011;57385;41.832;23.494;2022-10-17T01:41:10;6.07;;;3.08;;
70045;SDS011;57385;41.832;23.494;2022-10-17T01:41:58;7.85;;;3.78;;
70045;SDS011;57385;41.832;23.494;2022-10-17T01:42:29;6.93;;;3.13;;
70045;SDS011;57385;41.832;23.494;2022-10-17T01:43:33;6.03;;;3.22;;
70045;SDS011;57385;41.832;23.494;2022-10-17T01:43:40;7.10;;;3.55;;
70045;SDS011;57385;41.832;23.494;2022-10-17T01:44:14;4.40;;;3.28;;
70045;SDS011;57385;41.832;23.494;2022-10-17T01:44:54;4.65;;;2.92;;
70045;SDS011;57385;41.832;23.494;2022-10-17T01:45:51;5.22;;;3.00;;
70045;SDS011;57385;41.832;23.494;2022-10-17T01:46:23;3.92;;;2.40;;
70045;SDS011;57385;41.832;23.494;2022-10-17T01:46:49;3.53;;;2.33;;
70045;SDS011;57385;41.832;23.494;2022-10-17T01:47:14;3.60;;;2.55;;
70045;SDS011;57385;41.832;23.494;2022-10-17T01:47:37;5.30;;;2.65;;
70045;SDS011;57385;41.832;23.494;2022-10-17T01:48:08;6.15;;;2.83;;
70045;SDS011;57385;41.832;23.494;2022-10-17T01:48:34;10.38;;;3.60;;
70045;SDS011;57385;41.832;23.494;2022-10-17T01:48:55;8.82;;;3.25;;
70045;SDS011;57385;41.832;23.494;2022-10-17T01:49:20;6.65;;;3.63;;
70045;SDS011;57385;41.832;23.494;2022-10-17T01:49:45;8.63;;;3.85;;
70045;SDS011;57385;41.832;23.494;2022-10-17T01:50:12;11.93;;;4.53;;
70045;SDS011;57385;41.832;23.494;2022-10-17T01:50:47;10.98;;;4.20;;
70045;SDS011;57385;41.832;23.494;2022-10-17T01:51:13;7.63;;;4.10;;
70045;SDS011;57385;41.832;23.494;2022-10-17T01:52:18;10.20;;;4.25;;
70045;SDS011;57385;41.832;23.494;2022-10-17T01:52:46;11.73;;;4.63;;
70045;SDS011;57385;41.832;23.494;2022-10-17T01:53:17;9.27;;;4.63;;
70045;SDS011;57385;41.832;23.494;2022-10-17T01:53:53;8.25;;;4.60;;
70045;SDS011;57385;41.832;23.494;2022-10-17T01:54:24;10.60;;;5.28;;
70045;SDS011;57385;41.832;23.494;2022-10-17T01:54:57;12.27;;;5.13;;
70045;SDS011;57385;41.832;23.494;2022-10-17T01:55:35;13.52;;;5.40;;
70045;SDS011;57385;41.832;23.494;2022-10-17T01:55:59;11.55;;;4.72;;
70045;SDS011;57385;41.832;23.494;2022-10-17T01:56:21;10.75;;;5.25;;
70045;SDS011;57385;41.832;23.494;2022-10-17T01:56:44;12.35;;;5.47;;
70045;SDS011;57385;41.832;23.494;2022-10-17T01:57:08;12.90;;;5.90;;
70045;SDS011;57385;41.832;23.494;2022-10-17T01:57:49;13.00;;;5.20;;
70045;SDS011;57385;41.832;23.494;2022-10-17T01:58:21;10.48;;;5.53;;
70045;SDS011;57385;41.832;23.494;2022-10-17T01:58:48;9.40;;;4.72;;
70045;SDS011;57385;41.832;23.494;2022-10-17T01:59:12;11.10;;;4.75;;
70045;SDS011;57385;41.832;23.494;2022-10-17T01:59:40;10.90;;;5.00;;
70045;SDS011;57385;41.832;23.494;2022-10-17T02:00:04;10.43;;;4.90;;
70045;SDS011;57385;41.832;23.494;2022-10-17T02:00:32;8.93;;;4.88;;
70045;SDS011;57385;41.832;23.494;2022-10-17T02:00:53;9.90;;;4.70;;
70045;SDS011;57385;41.832;23.494;2022-10-17T02:01:16;9.52;;;4.82;;
70045;SDS011;57385;41.832;23.494;2022-10-17T02:01:40;12.35;;;5.10;;
70045;SDS011;57385;41.832;23.494;2022-10-17T02:02:02;11.23;;;5.00;;
70045;SDS011;57385;41.832;23.494;2022-10-17T02:02:22;9.65;;;4.75;;
70045;SDS011;57385;41.832;23.494;2022-10-17T02:02:44;9.68;;;5.30;;
70045;SDS011;57385;41.832;23.494;2022-10-17T02:03:08;9.40;;;4.80;;
70045;SDS011;57385;41.832;23.494;2022-10-17T02:03:32;8.15;;;4.72;;
70045;SDS011;57385;41.832;23.494;2022-10-17T02:03:53;10.88;;;5.22;;
70045;SDS011;57385;41.832;23.494;2022-10-17T02:04:14;11.23;;;5.00;;
70045;SDS011;57385;41.832;23.494;2022-10-17T02:04:35;10.48;;;5.00;;
70045;SDS011;57385;41.832;23.494;2022-10-17T02:04:56;7.50;;;4.70;;
70045;SDS011;57385;41.832;23.494;2022-10-17T02:05:16;9.93;;;4.97;;
70045;SDS011;57385;41.832;23.494;2022-10-17T02:05:41;10.75;;;5.50;;
70045;SDS011;57385;41.832;23.494;2022-10-17T02:06:02;9.07;;;5.30;;
70045;SDS011;57385;41.832;23.494;2022-10-17T02:06:21;8.10;;;4.95;;
70045;SDS011;57385;41.832;23.494;2022-10-17T02:06:42;7.20;;;4.75;;
70045;SDS011;57385;41.832;23.494;2022-10-17T02:07:05;9.77;;;5.05;;
70045;SDS011;57385;41.832;23.494;2022-10-17T02:07:26;10.77;;;4.78;;
70045;SDS011;57385;41.832;23.494;2022-10-17T02:07:45;9.63;;;4.57;;
70045;SDS011;57385;41.832;23.494;2022-10-17T02:08:05;12.10;;;4.97;;
70045;SDS011;57385;41.832;23.494;2022-10-17T02:08:28;11.35;;;5.32;;
70045;SDS011;57385;41.832;23.494;2022-10-17T02:08:59;9.73;;;5.05;;
70045;SDS011;57385;41.832;23.494;2022-10-17T02:09:40;9.23;;;4.82;;
70045;SDS011;57385;41.832;23.494;2022-10-17T02:10:00;11.40;;;4.95;;
70045;SDS011;57385;41.832;23.494;2022-10-17T02:10:29;11.07;;;5.57;;
70045;SDS011;57385;41.832;23.494;2022-10-17T02:10:57;10.23;;;5.30;;
70045;SDS011;57385;41.832;23.494;2022-10-17T02:11:25;10.27;;;5.57;;
70045;SDS011;57385;41.832;23.494;2022-10-17T02:11:48;9.70;;;5.25;;
70045;SDS011;57385;41.832;23.494;2022-10-17T02:12:30;11.77;;;5.10;;
70045;SDS011;57385;41.832;23.494;2022-10-17T02:13:01;8.20;;;4.55;;
70045;SDS011;57385;41.832;23.494;2022-10-17T02:14:24;11.82;;;5.10;;
70045;SDS011;57385;41.832;23.494;2022-10-17T02:16:58;13.38;;;5.28;;
70045;SDS011;57385;41.832;23.494;2022-10-17T02:19:29;14.05;;;6.43;;
70045;SDS011;57385;41.832;23.494;2022-10-17T02:20:21;14.95;;;6.55;;
70045;SDS011;57385;41.832;23.494;2022-10-17T02:21:06;15.32;;;7.00;;
70045;SDS011;57385;41.832;23.494;2022-10-17T02:21:35;15.32;;;6.75;;
70045;SDS011;57385;41.832;23.494;2022-10-17T02:23:07;14.60;;;6.63;;
70045;SDS011;57385;41.832;23.494;2022-10-17T02:23:58;15.45;;;6.78;;
70045;SDS011;57385;41.832;23.494;2022-10-17T02:26:10;12.32;;;7.13;;
70045;SDS011;57385;41.832;23.494;2022-10-17T02:26:55;13.60;;;6.50;;
70045;SDS011;57385;41.832;23.494;2022-10-17T02:27:25;14.45;;;6.82;;
70045;SDS011;57385;41.832;23.494;2022-10-17T02:27:55;12.00;;;7.20;;
70045;SDS011;57385;41.832;23.494;2022-10-17T02:28:26;16.98;;;7.63;;
70045;SDS011;57385;41.832;23.494;2022-10-17T02:29:32;13.88;;;6.90;;
70045;SDS011;57385;41.832;23.494;2022-10-17T02:30:05;17.15;;;7.40;;
70045;SDS011;57385;41.832;23.494;2022-10-17T02:31:37;17.67;;;7.53;;
70045;SDS011;57385;41.832;23.494;2022-10-17T02:32:02;18.08;;;7.25;;
70045;SDS011;57385;41.832;23.494;2022-10-17T02:32:28;13.38;;;7.50;;
70045;SDS011;57385;41.832;23.494;2022-10-17T02:33:10;13.95;;;7.25;;
70045;SDS011;57385;41.832;23.494;2022-10-17T02:33:45;12.85;;;6.55;;
70045;SDS011;57385;41.832;23.494;2022-10-17T02:34:13;16.27;;;6.90;;
70045;SDS011;57385;41.832;23.494;2022-10-17T02:34:50;16.70;;;7.43;;
70045;SDS011;57385;41.832;23.494;2022-10-17T02:35:15;15.55;;;7.32;;
70045;SDS011;57385;41.832;23.494;2022-10-17T02:35:39;13.43;;;7.18;;
70045;SDS011;57385;41.832;23.494;2022-10-17T02:36:03;14.80;;;6.47;;
70045;SDS011;57385;41.832;23.494;2022-10-17T02:36:31;15.07;;;6.80;;
70045;SDS011;57385;41.832;23.494;2022-10-17T02:36:57;20.40;;;7.80;;
70045;SDS011;57385;41.832;23.494;2022-10-17T02:37:19;14.45;;;7.07;;
70045;SDS011;57385;41.832;23.494;2022-10-17T02:37:43;12.68;;;6.82;;
70045;SDS011;57385;41.832;23.494;2022-10-17T02:38:05;15.00;;;7.38;;
70045;SDS011;57385;41.832;23.494;2022-10-17T02:38:28;16.00;;;7.18;;
70045;SDS011;57385;41.832;23.494;2022-10-17T02:38:49;15.05;;;7.50;;
70045;SDS011;57385;41.832;23.494;2022-10-17T02:39:11;15.65;;;8.05;;
70045;SDS011;57385;41.832;23.494;2022-10-17T02:39:31;12.85;;;6.97;;
70045;SDS011;57385;41.832;23.494;2022-10-17T02:39:53;16.77;;;6.72;;
70045;SDS011;57385;41.832;23.494;2022-10-17T02:40:19;17.08;;;7.55;;
70045;SDS011;57385;41.832;23.494;2022-10-17T02:40:40;11.95;;;7.00;;
70045;SDS011;57385;41.832;23.494;2022-10-17T02:41:02;14.07;;;7.00;;
70045;SDS011;57385;41.832;23.494;2022-10-17T02:41:23;13.60;;;6.72;;
70045;SDS011;57385;41.832;23.494;2022-10-17T02:41:44;11.63;;;6.47;;
70045;SDS011;57385;41.832;23.494;2022-10-17T02:42:06;9.45;;;6.10;;
70045;SDS011;57385;41.832;23.494;2022-10-17T02:42:29;10.00;;;5.60;;
70045;SDS011;57385;41.832;23.494;2022-10-17T02:42:50;13.80;;;6.07;;
70045;SDS011;57385;41.832;23.494;2022-10-17T02:43:14;9.88;;;5.25;;
70045;SDS011;57385;41.832;23.494;2022-10-17T02:43:34;9.10;;;5.93;;
70045;SDS011;57385;41.832;23.494;2022-10-17T02:43:55;10.52;;;5.97;;
70045;SDS011;57385;41.832;23.494;2022-10-17T02:44:17;9.27;;;5.53;;
70045;SDS011;57385;41.832;23.494;2022-10-17T02:44:43;10.13;;;5.60;;
70045;SDS011;57385;41.832;23.494;2022-10-17T02:45:07;12.20;;;5.53;;
70045;SDS011;57385;41.832;23.494;2022-10-17T02:45:29;12.32;;;5.95;;
70045;SDS011;57385;41.832;23.494;2022-10-17T02:45:49;12.93;;;5.53;;
70045;SDS011;57385;41.832;23.494;2022-10-17T02:46:11;12.68;;;5.68;;
70045;SDS011;57385;41.832;23.494;2022-10-17T02:46:33;12.57;;;6.35;;
70045;SDS011;57385;41.832;23.494;2022-10-17T02:46:58;12.70;;;5.50;;
70045;SDS011;57385;41.832;23.494;2022-10-17T02:48:05;11.65;;;5.20;;
70045;SDS011;57385;41.832;23.494;2022-10-17T02:48:33;11.93;;;5.35;;
70045;SDS011;57385;41.832;23.494;2022-10-17T02:49:21;9.15;;;5.40;;
70045;SDS011;57385;41.832;23.494;2022-10-17T02:49:45;9.27;;;5.45;;
70045;SDS011;57385;41.832;23.494;2022-10-17T02:50:09;10.48;;;5.35;;